Terminal Aerodrome Forecast
Issued by NWS Jacksonville, FL

Home | Current Version | Previous Version | Text Only | Print | Product List | Glossary On
Versions: 1 2 3 4 5 6 7 8 9 10 11 12 13 14 15 16 17 18 19 20
409
FTUS42 KJAX 230541
TAFGNV
TAF
KGNV 230541Z 2306/2406 03006KT P6SM VCSH SCT008 BKN015 OVC025
     FM230800 02005KT P6SM BKN008 OVC015
     FM231300 04010G15KT P6SM SCT008 BKN020 OVC030
     FM231500 04013G25KT P6SM SCT020 BKN030 OVC150
     FM231800 05014G25KT P6SM SCT020 BKN040
     FM240000 04007KT P6SM SCT020 BKN040=

USA.gov is the U.S. government's official web portal to all federal, state and local government web resources and services.